Latest Weather Observations for Moruya Airport

IDN60801

Issued at 7:03 pm EST Monday 29 August 2016 (issued every 30 minutes, with the page automatically refreshed every 10 minutes)

About weather observations | Map of weather stations | Latest weather observations for NSW | Other Formats
Station Details ID: 069148 Name: MORUYA AIRPORT AWS Lat: -35.90 Lon: 150.14 Height: 4.0 m
Data from the previous 72 hours. | See also: Recent months at Moruya Airport
Date/Time
EST
Temp
°C
App
Temp
°C
Dew
Point
°C
Rel
Hum
%
Delta-T
°C
Wind Press
QNH
hPa
Press
MSL
hPa
Rain since
9am
mm
Dir  Spd
km/h
Gust
km/h
Spd
kts
Gust
kts
29/07:00pm 14.0 13.2 11.0 82 1.6 WNW 6 7 3 4 1024.9 1024.9 0.0
29/06:30pm 14.5 15.0 11.5 82 1.6 CALM 0 0 0 0 1024.8 1024.8 0.0
29/06:00pm 14.9 15.3 11.3 79 1.9 CALM 0 0 0 0 1024.6 1024.6 0.0
29/05:30pm 15.9 16.5 11.9 77 2.2 CALM 0 0 0 0 1024.5 1024.5 0.0
29/05:00pm 16.7 16.2 12.0 74 2.6 ENE 6 7 3 4 1024.6 1024.6 0.0
29/04:30pm 17.1 16.3 11.6 70 3.0 ENE 7 9 4 5 1024.6 1024.6 0.0
29/04:00pm 17.4 16.1 11.4 68 3.2 E 9 11 5 6 1024.6 1024.6 0.0
29/03:30pm 17.4 16.0 10.8 65 3.5 E 9 13 5 7 1024.5 1024.5 0.0
29/03:00pm 17.8 15.3 9.7 59 4.2 ESE 13 15 7 8 1024.7 1024.7 0.0
29/02:30pm 17.9 15.2 9.0 56 4.6 ESE 13 17 7 9 1024.7 1024.7 0.0
29/02:00pm 18.4 15.7 8.9 54 4.9 ESE 13 15 7 8 1024.6 1024.6 0.0
29/01:30pm 18.7 16.6 8.4 51 5.3 ESE 9 13 5 7 1024.9 1024.9 0.0
29/01:00pm 18.5 15.0 5.4 42 6.3 ESE 13 15 7 8 1024.7 1024.7 0.0
29/12:30pm 19.0 15.2 4.0 37 7.1 ESE 13 15 7 8 1025.1 1025.1 0.0
29/12:00pm 18.4 14.6 3.8 38 6.8 SE 13 17 7 9 1025.5 1025.5 0.0
29/11:30am 18.2 14.3 3.3 37 6.9 ESE 13 15 7 8 1026.0 1026.0 0.0
29/11:00am 18.3 15.4 4.5 40 6.5 SE 9 13 5 7 1026.4 1026.4 0.0
29/10:30am 17.6 14.6 3.9 40 6.4 WSW 9 13 5 7 1026.8 1026.8 0.0
29/10:00am 16.4 13.2 5.1 47 5.3 SSW 11 13 6 7 1026.9 1026.9 0.0
29/09:30am 14.9 11.8 5.7 54 4.4 SW 11 13 6 7 1026.8 1026.8 0.0
29/09:00am 13.0 9.8 5.2 59 3.6 SW 11 15 6 8 1026.7 1026.7 0.0
29/08:30am 11.7 8.7 4.2 60 3.4 W 9 13 5 7 1026.7 1026.7 0.0
29/08:00am 9.5 6.9 4.1 69 2.4 WSW 7 9 4 5 1026.4 1026.4 0.0
29/07:30am 7.2 5.5 5.7 90 0.7 WSW 4 7 2 4 1026.2 1026.2 0.0
29/07:00am 4.9 2.2 3.7 92 0.5 W 7 11 4 6 1025.8 1025.8 0.0
29/06:30am 4.1 2.2 2.8 91 0.5 W 2 7 1 4 1025.2 1025.2 0.0
29/06:00am 3.5 0.1 1.9 89 0.6 WSW 9 11 5 6 1024.9 1024.9 0.0
29/05:30am 5.0 2.4 3.3 89 0.7 W 6 7 3 4 1024.6 1024.6 0.0
29/05:00am 4.5 2.2 2.7 88 0.7 WSW 4 9 2 5 1024.3 1024.3 0.0
29/04:30am 4.5 1.6 2.7 88 0.7 WSW 7 13 4 7 1024.0 1024.0 0.0
29/04:00am 4.8 1.9 2.5 85 0.9 SW 7 9 4 5 1023.5 1023.5 0.0
29/03:30am 6.1 2.7 3.8 85 1.0 WSW 11 15 6 8 1023.2 1023.2 0.0
29/03:00am 6.8 3.6 3.2 78 1.5 WSW 9 13 5 7 1023.2 1023.2 0.0
29/02:30am 6.6 4.9 3.9 83 1.1 W 2 7 1 4 1023.1 1023.1 0.0
29/02:00am 6.5 3.9 4.2 85 1.0 WSW 7 13 4 7 1022.9 1022.9 0.0
29/01:30am 6.3 4.7 4.5 88 0.8 W 2 9 1 5 1023.0 1023.0 0.0
29/01:00am 6.1 3.6 4.6 90 0.6 NW 7 9 4 5 1022.9 1022.9 0.0
29/12:30am 6.6 5.5 5.2 91 0.6 CALM 0 0 0 0 1022.2 1022.2 0.0
29/12:00am 6.4 5.3 5.2 92 0.5 CALM 0 0 0 0 1022.3 1022.3 0.0
 
Date/Time
EST
Temp
°C
App
Temp
°C
Dew
Point
°C
Rel
Hum
%
Delta-T
°C
Wind Press
QNH
hPa
Press
MSL
hPa
Rain since
9am
mm
Dir  Spd
km/h
Gust
km/h
Spd
kts
Gust
kts
28/11:30pm 5.7 3.7 4.3 91 0.6 WSW 4 7 2 4 1022.1 1022.1 0.0
28/11:00pm 5.9 4.7 4.5 91 0.6 CALM 0 0 0 0 1022.1 1022.1 0.0
28/10:30pm 5.7 4.0 4.0 89 0.7 WNW 2 6 1 3 1022.2 1022.2 0.0
28/10:00pm 6.5 4.2 4.8 89 0.7 NW 6 7 3 4 1022.1 1022.1 0.0
28/09:30pm 7.0 4.8 5.2 88 0.8 NW 6 7 3 4 1021.9 1021.9 0.0
28/09:00pm 6.9 4.9 4.6 85 1.0 WNW 4 9 2 5 1021.7 1021.7 0.0
28/08:30pm 7.1 5.9 4.4 83 1.2 CALM 0 0 0 0 1021.6 1021.6 0.0
28/08:00pm 8.0 6.0 4.4 78 1.6 WNW 4 7 2 4 1021.2 1021.2 0.0
28/07:30pm 9.0 6.6 5.4 78 1.6 NW 7 9 4 5 1021.1 1021.1 0.0
28/07:00pm 9.4 8.2 4.6 72 2.1 CALM 0 0 0 0 1021.1 1021.1 0.0
28/06:30pm 10.8 8.0 5.1 68 2.6 NNW 9 11 5 6 1020.7 1020.7 0.0
28/06:00pm 13.4 10.3 5.6 59 3.7 N 11 15 6 8 1020.1 1020.1 0.0
28/05:30pm 14.4 11.2 5.2 54 4.3 N 11 13 6 7 1019.7 1019.7 0.0
28/05:00pm 15.9 12.8 5.5 50 5.0 N 11 13 6 7 1019.6 1019.6 0.0
28/04:30pm 17.5 13.4 6.1 47 5.6 NNE 17 20 9 11 1019.3 1019.3 0.0
28/04:00pm 18.0 15.7 5.6 44 6.0 NNE 7 11 4 6 1019.3 1019.3 0.0
28/03:30pm 17.6 13.7 3.5 39 6.6 ENE 13 17 7 9 1019.2 1019.2 0.0
28/03:00pm 18.8 15.5 2.6 34 7.4 ENE 9 15 5 8 1019.2 1019.2 0.0
28/02:30pm 19.2 15.8 1.7 31 7.9 NNW 9 15 5 8 1019.3 1019.3 0.0
28/02:00pm 19.1 15.7 2.0 32 7.8 W 9 17 5 9 1019.6 1019.6 0.0
28/01:30pm 19.2 16.0 3.0 34 7.5 WSW 9 17 5 9 1019.8 1019.8 0.0
28/01:00pm 18.2 14.5 2.1 34 7.3 W 11 17 6 9 1020.2 1020.2 0.0
28/12:30pm 17.4 13.2 1.8 35 7.0 WNW 13 19 7 10 1020.5 1020.5 0.0
28/12:00pm 17.4 12.8 1.4 34 7.1 WNW 15 20 8 11 1020.9 1020.9 0.0
28/11:30am 17.3 13.1 1.7 35 7.0 W 13 17 7 9 1021.2 1021.2 0.0
28/11:00am 17.6 13.1 2.0 35 7.0 W 15 24 8 13 1021.4 1021.4 0.0
28/10:30am 17.9 13.7 1.4 33 7.4 W 13 20 7 11 1021.2 1021.2 0.0
28/10:00am 17.7 14.3 2.1 35 7.0 WNW 9 17 5 9 1021.4 1021.4 0.0
28/09:30am 15.3 12.2 3.8 46 5.3 WSW 9 13 5 7 1021.6 1021.6 0.0
28/09:00am 13.5 11.0 3.8 52 4.4 WSW 6 9 3 5 1021.6 1021.6 0.0
28/08:30am 10.3 7.6 2.7 59 3.3 WNW 6 9 3 5 1021.7 1021.7 0.0
28/08:00am 8.2 6.7 5.0 80 1.4 NW 2 6 1 3 1021.6 1021.6 0.0
28/07:30am 4.9 2.7 3.6 91 0.5 W 4 7 2 4 1021.4 1021.4 0.0
28/07:00am 2.1 -0.9 0.8 91 0.5 WNW 6 7 3 4 1021.0 1021.0 0.0
28/06:30am 2.0 -0.6 0.7 91 0.5 W 4 7 2 4 1020.7 1020.7 0.0
28/06:00am 1.9 -1.7 0.4 90 0.6 WNW 9 11 5 6 1020.2 1020.2 0.0
28/05:30am 2.2 -0.8 0.6 89 0.6 NW 6 9 3 5 1020.0 1020.0 0.0
28/05:00am 2.7 0.9 0.9 88 0.7 CALM 0 0 0 0 1019.6 1019.6 0.0
28/04:30am 3.1 1.3 1.2 87 0.7 CALM 0 2 0 1 1019.0 1019.0 0.0
28/04:00am 3.3 0.3 1.0 85 0.9 W 6 9 3 5 1018.8 1018.8 0.0
28/03:30am 4.4 1.5 1.3 80 1.2 NW 6 7 3 4 1018.6 1018.6 0.0
28/03:00am 5.9 2.9 2.0 76 1.6 SW 7 11 4 6 1018.8 1018.8 0.0
28/02:30am 6.7 3.6 1.2 68 2.2 SW 7 9 4 5 1018.7 1018.7 0.0
28/02:00am 8.1 5.1 1.7 64 2.6 SW 7 9 4 5 1019.1 1019.1 0.0
28/01:30am 9.6 6.6 0.5 53 3.7 W 6 11 3 6 1019.3 1019.3 0.0
28/01:00am 10.0 6.1 0.9 53 3.7 WNW 11 17 6 9 1019.0 1019.0 0.0
28/12:30am 9.9 6.4 1.0 54 3.7 WNW 9 13 5 7 1019.1 1019.1 0.0
28/12:00am 10.5 7.0 1.3 53 3.8 W 9 15 5 8 1019.2 1019.2 0.0
 
Date/Time
EST
Temp
°C
App
Temp
°C
Dew
Point
°C
Rel
Hum
%
Delta-T
°C
Wind Press
QNH
hPa
Press
MSL
hPa
Rain since
9am
mm
Dir  Spd
km/h
Gust
km/h
Spd
kts
Gust
kts
27/11:30pm 11.0 6.8 1.5 52 4.0 WNW 13 24 7 13 1019.4 1019.4 0.0
27/11:00pm 10.7 6.9 2.0 55 3.7 WNW 11 17 6 9 1019.5 1019.5 0.0
27/10:30pm 10.4 7.4 2.0 56 3.5 NW 7 9 4 5 1019.7 1019.7 0.0
27/10:00pm 11.8 7.7 2.0 51 4.2 NW 13 20 7 11 1019.6 1019.6 0.0
27/09:30pm 12.6 7.7 2.2 49 4.5 WNW 17 28 9 15 1019.5 1019.5 0.0
27/09:00pm 12.9 8.5 2.5 49 4.5 WNW 15 24 8 13 1019.1 1019.1 0.0
27/08:30pm 13.1 8.7 2.9 50 4.5 WNW 15 20 8 11 1019.0 1019.0 0.0
27/08:00pm 13.4 9.4 2.9 49 4.6 WNW 13 20 7 11 1019.1 1019.1 0.0
27/07:30pm 13.8 9.9 3.3 49 4.7 WNW 13 24 7 13 1018.8 1018.8 0.0
27/07:00pm 13.8 10.3 3.6 50 4.6 NW 11 17 6 9 1018.5 1018.5 0.0
27/06:30pm 11.3 9.0 5.8 69 2.6 NNW 7 11 4 6 1018.3 1018.3 0.0
27/06:00pm 12.6 10.4 6.2 65 3.0 NW 7 11 4 6 1018.1 1018.1 0.0
27/05:30pm 15.8 12.3 7.3 57 4.2 NNE 15 22 8 12 1017.8 1017.8 0.0
27/05:00pm 16.2 11.7 6.1 51 4.9 NE 19 28 10 15 1017.8 1017.8 0.0
27/04:30pm 16.6 11.9 5.9 49 5.2 NE 20 28 11 15 1017.8 1017.8 0.0
27/04:00pm 16.6 11.9 5.9 49 5.2 NE 20 28 11 15 1017.9 1017.9 0.0
27/03:30pm 17.1 12.5 6.3 49 5.3 NE 20 26 11 14 1018.2 1018.2 0.0
27/03:00pm 17.1 11.9 7.2 52 4.9 NE 24 30 13 16 1018.1 1018.1 0.0
27/02:30pm 17.1 11.7 6.3 49 5.3 NE 24 32 13 17 1018.4 1018.4 0.0
27/02:00pm 17.0 11.7 5.0 45 5.7 NE 22 28 12 15 1018.8 1018.8 0.0
27/01:30pm 17.0 12.2 5.6 47 5.5 ENE 20 24 11 13 1019.2 1019.2 0.0
27/01:00pm 16.3 11.2 5.9 50 5.0 ENE 22 26 12 14 1019.5 1019.5 0.0
27/12:30pm 15.9 10.9 6.6 54 4.5 NE 22 24 12 13 1020.1 1020.1 0.0
27/12:00pm 15.9 11.3 5.8 51 4.8 ENE 19 24 10 13 1020.5 1020.5 0.0
27/11:30am 15.3 11.4 7.3 59 4.0 ENE 17 20 9 11 1021.2 1021.2 0.0
27/11:00am 15.1 11.4 6.1 55 4.3 ENE 15 17 8 9 1021.5 1021.5 0.0
27/10:30am 14.5 11.3 5.3 54 4.3 ENE 11 15 6 8 1021.9 1021.9 0.0
27/10:00am 14.5 12.5 6.1 57 4.0 ESE 6 9 3 5 1022.2 1022.2 0.0
27/09:30am 12.8 9.8 4.3 56 3.9 W 9 13 5 7 1022.5 1022.5 0.0
27/09:00am 11.7 8.7 4.2 60 3.4 WSW 9 13 5 7 1022.4 1022.4 0.0
27/08:30am 10.1 7.4 3.8 65 2.8 W 7 13 4 7 1022.3 1022.3 0.0
27/08:00am 7.8 5.3 4.7 81 1.4 SW 7 9 4 5 1022.2 1022.2 0.0
27/07:30am 6.0 3.7 4.8 92 0.5 WSW 6 9 3 5 1021.9 1021.9 0.0
27/07:00am 3.9 2.3 2.7 92 0.5 CALM 0 6 0 3 1021.7 1021.7 0.0
27/06:30am 3.4 1.7 2.1 91 0.5 CALM 0 4 0 2 1021.6 1021.6 0.0
27/06:00am 3.3 0.9 2.0 91 0.5 W 4 9 2 5 1021.5 1021.5 0.0
27/05:30am 3.8 0.9 2.5 91 0.5 WSW 7 11 4 6 1021.5 1021.5 0.0
27/05:00am 4.1 2.2 2.6 90 0.6 W 2 6 1 3 1021.4 1021.4 0.0
27/04:30am 4.8 2.0 3.1 89 0.7 W 7 11 4 6 1021.5 1021.5 0.0
27/04:00am 4.8 2.0 3.1 89 0.7 W 7 11 4 6 1021.4 1021.4 0.0
27/03:30am 4.8 3.3 3.0 88 0.7 CALM 0 6 0 3 1021.2 1021.2 0.0
27/03:00am 5.7 3.2 3.7 87 0.8 W 6 11 3 6 1021.2 1021.2 0.0
27/02:30am 5.9 3.2 3.6 85 1.0 WSW 7 11 4 6 1021.4 1021.4 0.0
27/02:00am 6.0 3.5 4.5 90 0.6 WSW 7 11 4 6 1021.5 1021.5 0.0
27/01:30am 5.3 2.8 3.5 88 0.7 W 6 7 3 4 1021.5 1021.5 0.0
27/01:00am 6.3 3.7 4.1 86 0.9 SW 7 11 4 6 1021.6 1021.6 0.0
27/12:30am 6.9 4.0 4.6 85 1.0 W 9 11 5 6 1021.6 1021.6 0.0
27/12:00am 6.1 3.5 4.1 87 0.8 W 7 9 4 5 1021.6 1021.6 0.0
 
Date/Time
EST
Temp
°C
App
Temp
°C
Dew
Point
°C
Rel
Hum
%
Delta-T
°C
Wind Press
QNH
hPa
Press
MSL
hPa
Rain since
9am
mm
Dir  Spd
km/h
Gust
km/h
Spd
kts
Gust
kts
26/11:30pm 6.6 4.1 3.8 82 1.2 WSW 6 7 3 4 1021.6 1021.6 0.0
26/11:00pm 8.2 5.3 4.4 77 1.7 W 9 15 5 8 1021.5 1021.5 0.0
26/10:30pm 8.7 5.8 4.7 76 1.8 W 9 13 5 7 1021.4 1021.4 0.0
26/10:00pm 8.5 5.6 4.7 77 1.7 W 9 13 5 7 1021.3 1021.3 0.0
26/09:30pm 9.2 6.0 5.0 75 1.9 WSW 11 13 6 7 1021.2 1021.2 0.0
26/09:00pm 9.2 6.4 5.0 75 1.9 W 9 11 5 6 1021.0 1021.0 0.0
26/08:30pm 8.6 5.9 5.7 82 1.3 WSW 9 13 5 7 1020.7 1020.7 0.0
26/08:00pm 7.3 4.9 5.1 86 1.0 W 7 9 4 5 1020.4 1020.4 0.0
26/07:30pm 7.1 4.7 5.1 87 0.9 W 7 9 4 5 1020.2 1020.2 0.0

Other Formats:

Comma delimited format used in spreadsheet applications
http://www.bom.gov.au/fwo/IDN60801/IDN60801.95937.axf

JavaScript Object Notation format (JSON) in row-major order
http://www.bom.gov.au/fwo/IDN60801/IDN60801.95937.json